Vauxhall, Canada
Current Conditions -  °F | °C
As of 10:00 PM on Friday 24 Oct 2014 (Local Time) from CYQL Reporting Station
Overcast Overcast  
Wind Chill: 32°   Ceiling: 16000
Heat Index: 41°   Visibility: 15mi
Dew Point: 28°   Wind: 17mph
Humidity: 61%   Direction: 210°SSW
Pressure: 30.04"   Gusts: NA
Location:  50.07°N, 112.1°W
Report Text: CYQL 250400Z 21015KT 15SM OVC160 05/M02 A3004 RMK AC8 LAST STFD OBS/NXT 251200UTC SLP189
Loading
Personal Weather Stations






























Interactive Weather Map
Tropical Storm Tracking
New forecast layout! Learn more

10-Day Weather Forecast

Advertisements
Track Severe Weather on mobile